Time;durP1;ratioP1;P1;durP2;ratioP2;P2;SDS_P1;SDS_P2;PMS_P1;PMS_P2;Temp;Humidity;BMP_temperature;BMP_pressure;BME280_temperature;BME280_humidity;BME280_pressure;Samples;Min_cycle;Max_cycle;Signal;HPM_P1;HPM_P2
2023/06/26 00:00:58;;;;;;;5.70;3.35;;;24.10;84.50;;;24.66;81.90;100710.34;5192162;28;20045;-46
2023/06/26 00:03:32;;;;;;;5.82;3.15;;;24.00;85.20;;;24.60;82.09;100709.56;5220741;28;20415;-46
2023/06/26 00:06:05;;;;;;;6.05;3.30;;;23.90;85.70;;;24.55;81.25;100703.47;5204258;28;20053;-47
2023/06/26 00:08:38;;;;;;;5.63;3.60;;;23.90;85.30;;;24.48;80.92;100707.19;5200182;28;20048;-47
2023/06/26 00:11:11;;;;;;;5.47;3.53;;;23.80;85.20;;;24.47;81.82;100705.47;5200138;28;20046;-46
2023/06/26 00:13:43;;;;;;;5.85;3.50;;;23.80;85.90;;;24.44;82.41;100705.50;5214107;28;20038;-46
2023/06/26 00:16:16;;;;;;;4.93;3.40;;;23.70;86.60;;;24.37;83.12;100703.91;5207267;28;20049;-47
2023/06/26 00:18:48;;;;;;;4.63;3.30;;;23.70;87.40;;;24.32;84.06;100711.09;5200127;28;20053;-48
2023/06/26 00:21:20;;;;;;;4.65;3.00;;;23.60;88.10;;;24.26;84.75;100700.59;5200890;28;20302;-48
2023/06/26 00:23:54;;;;;;;5.80;3.15;;;23.60;88.90;;;24.20;84.73;100698.09;5211731;28;20052;-45
2023/06/26 00:26:27;;;;;;;4.80;3.13;;;23.50;89.10;;;24.14;85.01;100704.41;5204142;28;20158;-47
2023/06/26 00:28:59;;;;;;;5.28;3.60;;;23.40;89.60;;;24.06;85.59;100696.59;5202735;28;20534;-47
2023/06/26 00:31:31;;;;;;;5.20;3.47;;;23.40;90.20;;;24.02;86.32;100700.25;5211495;28;20136;-46
2023/06/26 00:34:10;;;;;;;5.43;3.58;;;23.30;90.50;;;23.95;87.00;100698.63;5209361;28;20141;-47
2023/06/26 00:36:43;;;;;;;4.93;3.25;;;23.30;90.90;;;23.89;87.50;100695.22;5209515;28;20049;-46
2023/06/26 00:39:17;;;;;;;5.22;3.55;;;23.20;91.10;;;23.86;87.19;100695.25;5185446;28;20046;-48
2023/06/26 00:41:50;;;;;;;4.65;3.13;;;23.10;91.20;;;23.81;86.70;100696.25;5211293;28;20414;-46
2023/06/26 00:44:24;;;;;;;4.95;3.38;;;23.10;91.30;;;23.78;87.18;100696.31;5199754;28;20057;-46
2023/06/26 00:46:56;;;;;;;5.35;3.10;;;23.10;91.50;;;23.70;88.14;100700.06;5213019;28;20149;-47
2023/06/26 00:49:29;;;;;;;5.85;3.65;;;23.10;91.90;;;23.61;88.77;100700.22;5212828;28;20053;-47
2023/06/26 00:52:03;;;;;;;4.78;3.20;;;23.00;92.40;;;23.51;89.91;100697.72;5202046;28;20068;-46
2023/06/26 00:54:38;;;;;;;5.80;3.65;;;22.90;92.80;;;23.41;90.88;100688.19;5201413;28;20466;-47
2023/06/26 00:57:11;;;;;;;5.07;3.45;;;22.80;93.30;;;23.33;91.15;100686.56;5218251;28;20050;-48
2023/06/26 00:59:43;;;;;;;5.35;3.50;;;22.70;93.70;;;23.24;90.49;100685.84;5212950;28;20127;-47
2023/06/26 01:02:19;;;;;;;6.85;3.83;;;22.60;93.70;;;23.18;89.44;100683.28;5202272;28;20040;-47
2023/06/26 01:04:53;;;;;;;5.07;3.55;;;22.50;93.50;;;23.16;89.74;100681.59;5199894;28;20050;-46
2023/06/26 01:07:26;;;;;;;5.40;3.40;;;22.50;93.80;;;23.12;90.34;100679.88;5212041;28;20052;-46
2023/06/26 01:10:00;;;;;;;5.28;3.70;;;22.50;94.20;;;23.09;90.88;100685.25;5192307;28;20073;-49
2023/06/26 01:12:33;;;;;;;4.97;3.28;;;22.40;94.80;;;23.05;91.12;100680.91;5196176;28;20057;-48
2023/06/26 01:15:06;;;;;;;4.93;3.05;;;22.40;94.80;;;23.01;92.11;100675.63;5198532;28;20041;-48
2023/06/26 01:17:44;;;;;;;5.85;3.33;;;22.30;95.30;;;22.98;92.19;100674.81;5208063;28;20041;-48
2023/06/26 01:20:18;;;;;;;5.20;3.58;;;22.30;95.50;;;22.94;92.42;100676.63;5207321;28;20061;-49
2023/06/26 01:23:15;;;;;;;5.05;3.28;;;22.30;95.80;;;22.93;92.65;100669.56;5197746;28;20406;-49
2023/06/26 01:26:11;;;;;;;5.28;3.33;;;22.30;96.00;;;22.87;93.45;100669.69;5190265;28;20061;-48
2023/06/26 01:28:44;;;;;;;4.93;3.45;;;22.30;96.60;;;22.86;93.79;100662.63;5206604;28;20042;-49
2023/06/26 01:31:18;;;;;;;5.10;3.25;;;22.20;96.90;;;22.83;94.29;100667.09;5190626;28;20045;-48
2023/06/26 01:33:51;;;;;;;4.65;3.40;;;22.20;97.30;;;22.78;94.69;100667.16;5204768;28;20068;-48
2023/06/26 01:36:27;;;;;;;5.40;3.17;;;22.20;97.60;;;22.71;95.04;100658.41;5210334;28;20072;-48
2023/06/26 01:38:59;;;;;;;5.22;3.67;;;22.10;97.90;;;22.68;95.44;100657.59;5188869;28;20060;-48
2023/06/26 01:41:33;;;;;;;5.07;3.63;;;22.00;98.30;;;22.63;95.75;100656.81;5209140;28;20083;-48
2023/06/26 01:44:25;;;;;;;5.72;3.70;;;22.00;98.60;;;22.57;96.08;100659.56;5198225;28;20038;-48
2023/06/26 01:47:02;;;;;;;4.28;3.10;;;22.00;98.90;;;22.50;96.51;100657.91;5204171;28;20053;-49
2023/06/26 01:49:47;;;;;;;5.80;3.55;;;21.90;99.30;;;22.42;97.39;100656.22;5202071;28;20498;-49
2023/06/26 01:52:26;;;;;;;5.63;3.70;;;21.80;99.80;;;22.38;97.54;100659.84;5198642;28;20403;-48
2023/06/26 01:55:17;;;;;;;5.10;3.42;;;21.80;99.90;;;22.35;97.66;100659.88;5203974;28;20053;-48
2023/06/26 01:57:53;;;;;;;4.68;3.35;;;21.70;99.90;;;22.35;97.83;100659.88;5191278;28;20041;-47
2023/06/26 02:00:26;;;;;;;4.95;3.38;;;21.70;99.90;;;22.31;97.73;100663.50;5198914;28;20413;-48
2023/06/26 02:02:59;;;;;;;5.18;3.53;;;21.70;99.90;;;22.24;98.39;100656.53;5204022;28;20486;-49
2023/06/26 02:05:31;;;;;;;4.35;3.15;;;21.60;99.90;;;22.17;98.92;100662.84;5198799;28;20054;-48
2023/06/26 02:08:05;;;;;;;5.82;3.85;;;21.60;99.90;;;22.12;99.60;100657.59;5213713;28;20096;-48
2023/06/26 02:10:38;;;;;;;4.70;3.47;;;21.50;99.90;;;22.09;99.84;100656.75;5201877;28;20061;-47
2023/06/26 02:13:12;;;;;;;5.25;3.42;;;21.50;99.90;;;22.05;100.00;100655.03;5197637;28;20123;-48
2023/06/26 02:15:44;;;;;;;5.63;3.58;;;21.50;99.90;;;22.02;100.00;100652.41;5210046;28;20136;-49
2023/06/26 02:18:17;;;;;;;4.82;3.13;;;21.40;99.90;;;22.00;100.00;100651.56;5201111;28;20045;-48
2023/06/26 02:20:50;;;;;;;4.75;3.05;;;21.40;99.90;;;21.97;100.00;100655.09;5201275;28;20520;-48
2023/06/26 02:23:22;;;;;;;5.15;3.30;;;21.40;99.90;;;21.95;100.00;100662.22;5208607;28;20410;-48
2023/06/26 02:25:57;;;;;;;5.35;3.42;;;21.30;99.90;;;21.90;100.00;100670.25;5194589;28;20041;-48
2023/06/26 02:28:33;;;;;;;5.85;3.95;;;21.30;99.90;;;21.80;99.61;100676.59;5209535;28;20057;-48
2023/06/26 02:31:05;;;;;;;4.93;3.50;;;21.20;99.90;;;21.71;99.56;100682.00;5212387;28;20055;-48
2023/06/26 02:33:39;;;;;;;5.63;3.45;;;21.10;99.90;;;21.65;99.83;100682.97;5200210;28;20045;-48
2023/06/26 02:36:11;;;;;;;6.43;3.53;;;21.10;99.90;;;21.64;100.00;100675.88;5202404;28;20057;-48
2023/06/26 02:38:46;;;;;;;7.03;4.40;;;21.10;99.90;;;21.63;100.00;100678.56;5197111;28;20128;-49
2023/06/26 02:41:19;;;;;;;5.82;3.75;;;21.00;99.90;;;21.64;99.88;100678.53;5205804;28;20066;-48
2023/06/26 02:43:53;;;;;;;6.05;3.70;;;21.10;99.90;;;21.64;99.17;100670.59;5197309;28;20046;-48
2023/06/26 02:46:25;;;;;;;6.13;4.28;;;21.10;99.90;;;21.67;98.35;100675.88;5207002;28;20303;-48
2023/06/26 02:48:58;;;;;;;7.43;4.32;;;21.10;99.90;;;21.69;97.54;100678.50;5201224;28;20064;-48
2023/06/26 02:51:33;;;;;;;7.25;4.60;;;21.10;99.90;;;21.71;97.33;100689.06;5217409;28;20061;-49
2023/06/26 02:54:12;;;;;;;7.05;4.55;;;21.10;99.90;;;21.73;97.59;100695.25;5201085;28;20068;-48
2023/06/26 02:56:44;;;;;;;6.20;4.10;;;21.20;99.90;;;21.68;97.82;100698.84;5217091;28;20521;-48
2023/06/26 02:59:18;;;;;;;6.57;3.78;;;21.10;99.90;;;21.62;98.43;100698.91;5200621;28;20045;-48
2023/06/26 03:01:51;;;;;;;6.45;3.97;;;21.10;99.90;;;21.57;99.42;100699.84;5200971;28;20045;-48
2023/06/26 03:04:27;;;;;;;5.88;3.85;;;21.00;99.90;;;21.58;99.76;100709.56;5217156;28;20060;-48
2023/06/26 03:07:00;;;;;;;5.93;3.78;;;21.00;99.90;;;21.59;99.70;100708.69;5211149;28;20049;-48
2023/06/26 03:09:32;;;;;;;6.65;3.92;;;21.00;99.90;;;21.59;100.00;100706.03;5207015;28;20057;-49
2023/06/26 03:12:10;;;;;;;6.90;3.92;;;21.00;99.90;;;21.58;100.00;100712.22;5197169;28;20048;-48
2023/06/26 03:14:44;;;;;;;5.93;3.92;;;21.00;99.90;;;21.56;100.00;100717.53;5220803;28;20054;-49
2023/06/26 03:17:16;;;;;;;6.63;3.70;;;21.00;99.90;;;21.54;100.00;100726.44;5200549;28;20562;-49
2023/06/26 03:19:51;;;;;;;6.18;3.75;;;21.00;99.90;;;21.48;100.00;100718.53;5213356;28;20574;-48
2023/06/26 03:22:30;;;;;;;6.95;4.03;;;20.90;99.90;;;21.44;100.00;100725.63;5204674;28;20107;-48
2023/06/26 03:25:03;;;;;;;5.95;3.88;;;20.90;99.90;;;21.43;100.00;100725.66;5204848;28;20183;-48
2023/06/26 03:27:36;;;;;;;6.85;3.97;;;20.90;99.90;;;21.42;100.00;100726.56;5212254;28;20053;-49
2023/06/26 03:30:12;;;;;;;6.43;3.88;;;20.90;99.90;;;21.33;100.00;100733.72;5204788;28;20104;-49
2023/06/26 03:32:47;;;;;;;7.13;4.25;;;20.80;99.90;;;21.28;100.00;100743.50;5204867;28;20729;-49
2023/06/26 03:35:20;;;;;;;7.47;4.68;;;20.80;99.90;;;21.24;100.00;100738.19;5200529;28;20132;-48
2023/06/26 03:37:53;;;;;;;5.95;3.95;;;20.70;99.90;;;21.23;100.00;100739.97;5216635;28;20141;-49
2023/06/26 03:40:26;;;;;;;6.28;4.05;;;20.70;99.90;;;21.22;100.00;100738.22;5217488;28;20057;-48
2023/06/26 03:42:58;;;;;;;5.80;3.65;;;20.70;99.90;;;21.23;100.00;100742.63;5208947;28;20050;-48
2023/06/26 03:45:32;;;;;;;5.95;3.75;;;20.70;99.90;;;21.28;100.00;100745.22;5209972;28;20498;-48
2023/06/26 03:48:05;;;;;;;6.55;4.20;;;20.70;99.90;;;21.31;100.00;100751.41;5204169;28;20080;-48
2023/06/26 03:50:37;;;;;;;6.07;4.00;;;20.80;99.90;;;21.36;100.00;100749.59;5203638;28;20136;-48
2023/06/26 03:53:10;;;;;;;6.30;4.00;;;20.80;99.90;;;21.37;100.00;100759.28;5206410;28;20578;-47
2023/06/26 03:55:42;;;;;;;6.15;3.78;;;20.80;99.90;;;21.40;100.00;100756.63;5203160;28;20573;-48
2023/06/26 03:58:18;;;;;;;6.15;3.92;;;20.80;99.90;;;21.43;100.00;100760.13;5220406;28;20042;-48
2023/06/26 04:00:53;;;;;;;6.50;3.85;;;20.80;99.90;;;21.48;100.00;100758.31;5203783;28;20505;-48
2023/06/26 04:03:27;;;;;;;5.93;3.70;;;20.90;99.90;;;21.52;100.00;100765.34;5195622;28;20085;-48
2023/06/26 04:05:59;;;;;;;6.10;3.72;;;20.90;99.90;;;21.56;100.00;100762.63;5203939;28;20160;-47
2023/06/26 04:08:31;;;;;;;6.82;4.18;;;21.00;99.90;;;21.62;100.00;100757.25;5203725;28;20612;-48
2023/06/26 04:11:04;;;;;;;6.68;4.35;;;21.10;99.90;;;21.71;100.00;100758.94;5212304;28;20041;-48
2023/06/26 04:13:36;;;;;;;6.25;3.83;;;21.10;99.90;;;21.81;100.00;100760.59;5209997;28;20419;-48
2023/06/26 04:16:14;;;;;;;6.43;4.30;;;21.20;99.90;;;21.92;100.00;100768.44;5193954;28;20064;-48
2023/06/26 04:18:46;;;;;;;6.22;3.75;;;21.30;99.90;;;22.04;100.00;100767.38;5209608;28;20046;-48
2023/06/26 04:21:19;;;;;;;6.75;4.13;;;21.40;99.90;;;22.15;100.00;100778.78;5211969;28;20042;-48
2023/06/26 04:23:52;;;;;;;6.32;3.97;;;21.60;99.90;;;22.22;100.00;100777.78;5218689;28;20442;-48
2023/06/26 04:26:28;;;;;;;5.40;3.65;;;21.70;99.90;;;22.30;100.00;100778.59;5203536;28;20045;-48
2023/06/26 04:29:01;;;;;;;6.22;3.90;;;21.70;99.90;;;22.40;100.00;100779.31;5211811;28;20038;-48
2023/06/26 04:31:35;;;;;;;6.45;4.03;;;21.80;99.90;;;22.48;100.00;100782.75;5208804;28;20064;-48
2023/06/26 04:34:07;;;;;;;6.10;3.90;;;21.90;99.90;;;22.57;100.00;100782.63;5203627;28;20047;-48
2023/06/26 04:36:40;;;;;;;6.80;4.70;;;22.00;99.90;;;22.67;100.00;100780.69;5202513;28;20050;-48
2023/06/26 04:39:13;;;;;;;6.80;4.07;;;22.10;99.90;;;22.74;100.00;100785.00;5199514;28;20125;-48
2023/06/26 04:41:45;;;;;;;6.30;3.95;;;22.10;99.90;;;22.77;100.00;100790.31;5217424;28;20061;-47
2023/06/26 04:44:21;;;;;;;6.32;3.75;;;22.20;99.90;;;22.80;100.00;100784.91;5204466;28;20526;-48
2023/06/26 04:46:55;;;;;;;5.25;3.60;;;22.20;99.90;;;22.89;99.86;100794.59;5203422;28;20056;-48
2023/06/26 04:49:28;;;;;;;7.20;4.10;;;22.30;99.90;;;22.98;98.19;100800.63;5210935;28;20054;-48
2023/06/26 04:52:01;;;;;;;8.40;3.70;;;22.40;99.90;;;23.11;97.11;100803.09;5202947;28;20073;-48
2023/06/26 04:54:33;;;;;;;7.10;3.65;;;22.50;99.90;;;23.29;96.33;100800.13;5200022;28;20068;-48
2023/06/26 04:57:06;;;;;;;6.85;3.58;;;22.70;99.90;;;23.48;95.55;100806.00;5202498;28;20061;-48
2023/06/26 04:59:38;;;;;;;6.38;3.42;;;22.80;99.90;;;23.71;94.35;100808.25;5210904;28;20069;-48
2023/06/26 05:02:14;;;;;;;7.22;3.53;;;23.00;99.90;;;23.95;92.54;100806.91;5219239;28;20045;-48
2023/06/26 05:04:48;;;;;;;6.35;4.00;;;23.20;99.90;;;24.17;90.88;100815.31;5203040;28;20103;-48
2023/06/26 05:07:20;;;;;;;5.60;3.38;;;23.40;99.90;;;24.24;89.72;100815.13;5219020;28;20545;-47
2023/06/26 05:09:53;;;;;;;5.45;3.63;;;23.60;99.90;;;24.33;89.51;100814.09;5202341;28;20037;-48
2023/06/26 05:12:25;;;;;;;5.78;3.00;;;23.70;99.90;;;24.44;89.18;100822.75;5202950;28;20056;-48
2023/06/26 05:14:57;;;;;;;7.93;3.70;;;23.70;99.90;;;24.57;88.30;100821.56;5211118;28;20045;-48
2023/06/26 05:17:31;;;;;;;5.60;3.33;;;23.90;99.90;;;24.73;87.29;100813.22;5201889;28;20061;-48
2023/06/26 05:20:05;;;;;;;6.70;3.63;;;24.10;99.60;;;24.93;86.98;100821.63;5202364;28;20045;-49
2023/06/26 05:22:40;;;;;;;8.10;3.65;;;24.20;99.40;;;25.16;86.20;100823.75;5207894;28;20063;-48
2023/06/26 05:25:13;;;;;;;5.38;3.33;;;24.40;99.10;;;25.53;84.69;100829.03;5202568;28;20136;-49
2023/06/26 05:27:46;;;;;;;6.03;3.50;;;24.70;98.70;;;25.84;83.10;100822.91;5207944;28;20518;-50
2023/06/26 05:30:20;;;;;;;6.80;3.80;;;25.00;98.10;;;26.11;82.92;100819.44;5193008;28;20064;-49
2023/06/26 05:32:55;;;;;;;7.18;3.67;;;25.20;97.90;;;26.27;81.25;100813.63;5218023;28;20049;-48
2023/06/26 05:35:30;;;;;;;5.60;3.42;;;25.40;97.20;;;26.17;80.14;100810.38;5218530;28;20054;-49
2023/06/26 05:38:03;;;;;;;5.65;3.20;;;25.40;96.50;;;26.00;79.92;100810.84;5210475;28;20091;-48
2023/06/26 05:40:36;;;;;;;6.90;3.58;;;25.30;96.20;;;25.87;80.70;100829.03;5218391;28;20422;-48
2023/06/26 05:43:09;;;;;;;6.65;3.70;;;25.20;96.30;;;25.79;80.83;100830.16;5197826;28;20506;-48
2023/06/26 05:45:42;;;;;;;7.28;3.90;;;25.10;96.20;;;25.65;80.79;100827.84;5213661;28;20053;-48
2023/06/26 05:48:16;;;;;;;6.55;3.50;;;25.00;96.10;;;25.54;81.15;100836.13;5201557;28;20045;-48
2023/06/26 05:50:49;;;;;;;5.20;3.40;;;24.90;96.20;;;25.55;81.97;100840.53;5201827;28;20057;-48
2023/06/26 05:53:22;;;;;;;6.68;3.33;;;24.90;96.50;;;25.59;81.39;100839.53;5211642;28;20507;-49
2023/06/26 05:55:56;;;;;;;7.93;4.03;;;24.90;96.40;;;25.55;81.40;100835.19;5208627;28;20041;-49
2023/06/26 05:58:31;;;;;;;6.03;3.60;;;24.90;96.30;;;25.50;81.56;100838.94;5201786;28;20041;-48
2023/06/26 06:01:04;;;;;;;6.47;3.47;;;24.80;96.30;;;25.48;81.21;100835.41;5189860;28;20053;-48
2023/06/26 06:03:38;;;;;;;6.57;3.40;;;24.80;96.20;;;25.45;80.95;100847.03;5206425;28;20057;-49
2023/06/26 06:06:10;;;;;;;5.45;2.80;;;24.80;96.10;;;25.34;79.95;100854.44;5209737;28;20510;-48
2023/06/26 06:08:42;;;;;;;4.93;2.70;;;24.70;95.60;;;25.04;79.38;100856.97;5209157;28;20504;-48
2023/06/26 06:11:15;;;;;;;5.60;3.10;;;24.50;95.20;;;24.83;79.89;100860.06;5214269;28;20049;-47
2023/06/26 06:13:47;;;;;;;6.93;3.03;;;24.30;95.20;;;24.61;80.21;100863.22;5205604;28;20470;-48
2023/06/26 06:16:21;;;;;;;6.07;2.90;;;24.10;95.40;;;24.49;81.53;100866.16;5195958;28;20049;-48
2023/06/26 06:18:55;;;;;;;7.68;2.65;;;24.00;95.80;;;24.68;81.57;100869.28;5209240;28;20041;-48
2023/06/26 06:21:27;;;;;;;4.78;2.60;;;24.00;96.10;;;24.96;81.93;100869.53;5202540;28;20159;-48
2023/06/26 06:24:01;;;;;;;5.28;2.90;;;24.20;96.30;;;25.21;81.31;100885.00;5209269;28;20528;-48
2023/06/26 06:26:36;;;;;;;5.30;2.67;;;24.40;96.20;;;25.32;79.92;100888.28;5199827;28;20076;-48
2023/06/26 06:29:09;;;;;;;6.15;2.80;;;24.60;95.60;;;25.25;79.53;100887.56;5205860;28;20521;-48
2023/06/26 06:31:41;;;;;;;7.80;2.72;;;24.60;95.30;;;25.10;79.78;100886.16;5200374;28;20559;-47
2023/06/26 06:34:15;;;;;;;5.03;2.58;;;24.40;95.30;;;24.90;80.68;100883.88;5210040;28;20041;-47
2023/06/26 06:36:48;;;;;;;4.53;2.65;;;24.30;95.40;;;24.80;81.77;100878.81;5202713;28;20054;-48
2023/06/26 06:39:20;;;;;;;6.40;2.72;;;24.20;95.80;;;24.70;82.19;100883.47;5202795;28;20049;-49
2023/06/26 06:41:53;;;;;;;4.63;2.47;;;24.10;95.90;;;24.52;82.12;100884.75;5206273;28;20050;-48
2023/06/26 06:44:25;;;;;;;6.10;2.67;;;24.00;95.90;;;24.42;82.96;100893.84;5207583;28;20050;-48
2023/06/26 06:46:58;;;;;;;4.20;2.50;;;23.90;96.20;;;24.54;83.57;100893.59;5205793;28;20042;-48
2023/06/26 06:49:31;;;;;;;5.78;2.85;;;23.90;96.50;;;24.68;83.87;100889.75;5210928;28;20041;-48
2023/06/26 06:52:05;;;;;;;5.68;2.88;;;24.00;96.70;;;24.76;84.02;100896.66;5200669;28;20041;-48
2023/06/26 06:54:53;;;;;;;6.07;2.38;;;24.10;96.80;;;24.66;83.33;100896.91;5213927;28;20054;-48
2023/06/26 06:57:26;;;;;;;5.80;3.05;;;24.10;96.50;;;24.69;83.66;100918.16;5202296;28;20057;-48
2023/06/26 06:59:58;;;;;;;6.50;2.70;;;24.10;96.60;;;24.77;84.16;100908.19;5199980;28;20041;-48
2023/06/26 07:02:31;;;;;;;6.28;2.70;;;24.10;96.70;;;24.88;83.66;100903.50;5200789;28;20053;-47
2023/06/26 07:05:05;;;;;;;6.40;2.70;;;24.20;96.80;;;25.03;83.75;100897.81;5200845;28;20056;-48
2023/06/26 07:07:38;;;;;;;6.88;2.85;;;24.30;96.70;;;25.30;83.20;100899.00;5200651;28;20534;-48
2023/06/26 07:10:15;;;;;;;5.03;2.58;;;24.50;96.70;;;25.68;82.40;100908.69;5194093;28;20069;-48
2023/06/26 07:12:47;;;;;;;6.18;2.75;;;24.80;96.50;;;26.10;79.47;100919.22;5209234;28;20060;-48
2023/06/26 07:15:20;;;;;;;6.72;2.70;;;25.20;95.70;;;26.47;78.70;100935.13;5209103;28;20049;-49
2023/06/26 07:17:52;;;;;;;6.40;2.80;;;25.50;95.30;;;26.92;77.09;100941.81;5200389;28;20053;-48
2023/06/26 07:20:26;;;;;;;9.23;2.80;;;25.80;94.80;;;27.03;74.21;100937.00;5210794;28;20049;-48
2023/06/26 07:23:01;;;;;;;7.15;2.75;;;26.10;93.70;;;26.65;75.09;100949.72;5207995;28;20410;-48
2023/06/26 07:25:34;;;;;;;5.70;2.38;;;25.90;93.50;;;26.70;77.27;100960.31;5201315;28;20054;-49
2023/06/26 07:28:11;;;;;;;6.60;2.40;;;25.80;94.20;;;26.99;75.45;100956.75;5200446;28;20053;-48
2023/06/26 07:30:47;;;;;;;5.28;2.67;;;26.00;93.70;;;27.29;74.87;100947.81;5212327;28;20053;-48
2023/06/26 07:33:20;;;;;;;3.42;2.30;;;26.30;93.60;;;27.60;72.71;100962.88;5203105;28;20053;-48
2023/06/26 07:35:54;;;;;;;6.75;2.50;;;26.50;92.80;;;27.64;71.31;100960.97;5208340;28;20077;-48
2023/06/26 07:38:26;;;;;;;7.78;3.05;;;26.70;92.10;;;27.26;71.91;100958.63;5208127;28;20514;-48
2023/06/26 07:41:02;;;;;;;5.15;2.80;;;26.40;91.80;;;26.96;73.42;100951.50;5199416;28;20140;-48
2023/06/26 07:43:34;;;;;;;8.63;2.60;;;26.20;92.30;;;26.91;74.73;100959.66;5188218;28;20175;-49
2023/06/26 07:46:07;;;;;;;7.35;3.00;;;26.10;92.80;;;26.97;73.97;100964.81;5197738;28;20107;-50
2023/06/26 07:48:42;;;;;;;5.63;2.95;;;26.10;92.50;;;26.97;74.22;100955.91;5198762;28;20053;-50
2023/06/26 07:51:16;;;;;;;9.73;3.03;;;26.10;92.60;;;27.12;74.24;100962.63;5194648;28;20324;-49
2023/06/26 07:53:48;;;;;;;6.93;2.85;;;26.10;92.80;;;27.38;74.29;100964.47;5210877;28;20124;-49
2023/06/26 07:56:21;;;;;;;10.07;3.40;;;26.30;93.00;;;27.62;72.32;100963.69;5196669;28;20507;-49
2023/06/26 07:58:57;;;;;;;8.63;3.05;;;26.50;92.30;;;27.78;72.71;100956.06;5201660;28;20517;-49
2023/06/26 08:01:29;;;;;;;6.95;3.00;;;26.60;92.30;;;28.16;71.49;100952.03;5213932;28;20053;-51
2023/06/26 08:04:02;;;;;;;5.93;3.20;;;26.90;92.10;;;28.46;69.99;100958.13;5211006;28;20054;-49
2023/06/26 08:06:40;;;;;;;4.63;2.83;;;27.10;91.40;;;28.86;70.00;100962.88;5199134;28;20050;-49
2023/06/26 08:09:12;;;;;;;7.60;3.40;;;27.40;91.50;;;29.26;67.18;100966.72;5208937;28;20077;-49
2023/06/26 08:11:45;;;;;;;5.53;3.10;;;27.70;90.30;;;29.24;66.47;100973.97;5220065;28;20053;-49
2023/06/26 08:14:18;;;;;;;6.80;3.15;;;27.80;90.00;;;29.31;67.37;100977.28;5215148;28;20061;-49
2023/06/26 08:16:51;;;;;;;8.60;3.10;;;27.80;90.10;;;29.42;66.87;100981.28;5216945;28;20050;-49
2023/06/26 08:19:23;;;;;;;5.68;3.10;;;27.90;90.10;;;29.42;66.15;100978.59;5214382;28;20042;-48
2023/06/26 08:21:57;;;;;;;5.95;2.65;;;27.80;89.20;;;29.67;66.15;100977.63;5215749;28;20054;-50
2023/06/26 08:24:29;;;;;;;5.85;2.65;;;27.90;89.70;;;29.45;65.57;100981.13;5195025;28;20049;-48
2023/06/26 08:27:03;;;;;;;7.53;3.03;;;27.90;88.50;;;28.90;66.69;100975.25;5199066;28;20407;-48
2023/06/26 08:29:35;;;;;;;7.22;2.75;;;27.60;88.30;;;28.58;67.90;100989.00;5194305;28;20118;-49
2023/06/26 08:32:08;;;;;;;5.70;2.90;;;27.30;89.00;;;28.21;69.46;100992.09;5210982;28;20053;-48
2023/06/26 08:34:40;;;;;;;6.22;2.63;;;27.10;90.00;;;27.88;70.52;100988.75;5212067;28;20050;-49
2023/06/26 08:37:14;;;;;;;4.43;2.90;;;26.80;90.20;;;27.63;71.13;100992.22;5198736;28;20062;-48
2023/06/26 08:39:46;;;;;;;5.45;3.03;;;26.60;90.50;;;28.00;69.75;100983.00;5207848;28;20045;-48
2023/06/26 08:42:19;;;;;;;6.45;2.47;;;26.60;90.70;;;28.87;68.74;100996.81;5206312;28;20384;-47
2023/06/26 08:44:51;;;;;;;6.22;2.50;;;26.80;90.70;;;30.23;64.79;101009.28;5200229;28;20053;-49
2023/06/26 08:47:24;;;;;;;5.65;2.80;;;27.60;90.10;;;30.37;63.30;101011.38;5202941;28;20055;-49
2023/06/26 08:50:07;;;;;;;7.05;2.50;;;28.00;87.90;;;30.56;64.39;101001.53;5202997;28;20042;-49
2023/06/26 08:52:50;;;;;;;5.05;2.28;;;28.30;88.40;;;30.72;62.14;101004.47;5203096;28;20502;-49
2023/06/26 08:55:25;;;;;;;4.53;2.20;;;28.50;86.10;;;30.48;61.85;101009.97;5203209;28;20052;-49
2023/06/26 08:57:57;;;;;;;5.47;2.42;;;28.50;84.80;;;29.90;63.52;101011.56;5208517;28;20053;-49
2023/06/26 09:00:30;;;;;;;6.68;2.85;;;28.30;85.00;;;30.65;61.46;101011.91;5202729;28;20050;-50
2023/06/26 09:03:05;;;;;;;6.82;2.33;;;28.50;84.80;;;30.90;60.90;101003.59;5208549;28;20045;-50
2023/06/26 09:05:37;;;;;;;5.93;2.45;;;28.70;83.90;;;30.76;61.04;101014.13;5197781;28;20067;-50
2023/06/26 09:08:13;;;;;;;5.93;2.42;;;28.70;83.40;;;31.62;58.79;101010.94;5201379;28;20052;-49
2023/06/26 09:10:49;;;;;;;5.97;2.20;;;29.10;82.10;;;32.80;55.59;101015.66;5218530;28;20045;-50
2023/06/26 09:13:22;;;;;;;6.18;2.50;;;29.80;80.30;;;33.01;53.46;101017.25;5212016;28;20540;-49
2023/06/26 09:15:55;;;;;;;7.53;2.15;;;30.20;76.80;;;31.81;56.39;101016.31;5199565;28;20054;-48
2023/06/26 09:18:27;;;;;;;;;;;29.70;77.40;;;30.39;59.17;101014.88;5205369;28;20689;-48
2023/06/26 09:21:08;;;;;;;5.97;2.40;;;28.90;78.10;;;29.29;61.99;101009.56;5200222;28;19921;-49
2023/06/26 09:23:42;;;;;;;6.25;2.25;;;28.30;80.00;;;29.55;63.72;101007.69;5202110;28;20053;-48
2023/06/26 09:26:16;;;;;;;5.88;2.30;;;28.10;82.20;;;30.11;62.42;101020.56;5201212;28;21110;-48
2023/06/26 09:28:50;;;;;;;7.70;2.60;;;28.20;82.60;;;30.66;61.25;101019.03;5190808;28;20110;-48
2023/06/26 09:31:25;;;;;;;4.70;2.30;;;28.60;82.10;;;30.81;60.49;101022.88;5217395;28;20050;-48
2023/06/26 09:34:00;;;;;;;6.45;2.63;;;28.80;81.20;;;30.84;60.36;101011.94;5201257;28;20054;-48
2023/06/26 09:36:35;;;;;;;6.53;2.55;;;29.00;80.50;;;30.67;60.00;101020.81;5214748;28;20057;-48
2023/06/26 09:39:14;;;;;;;7.93;2.35;;;29.00;79.50;;;30.12;60.83;101022.31;5200636;28;20608;-48
2023/06/26 09:41:46;;;;;;;6.38;2.60;;;28.80;79.30;;;29.48;62.29;101014.19;5217487;28;20048;-48
2023/06/26 09:44:19;;;;;;;4.53;2.13;;;28.40;79.80;;;29.20;63.42;101015.25;5206318;28;20061;-48
2023/06/26 09:46:53;;;;;;;3.83;2.08;;;28.20;80.50;;;29.09;63.53;101025.56;5206021;28;20049;-48
2023/06/26 09:49:26;;;;;;;5.68;2.60;;;28.10;80.50;;;28.79;63.23;101023.06;5218453;28;20124;-48
2023/06/26 09:52:03;;;;;;;5.22;2.30;;;27.80;80.40;;;28.39;64.40;101027.19;5199040;28;20144;-48
2023/06/26 09:54:37;;;;;;;5.90;2.28;;;27.60;80.80;;;28.32;65.71;101020.28;5218683;28;20045;-48
2023/06/26 09:57:10;;;;;;;6.28;2.33;;;27.40;81.90;;;28.10;65.74;101035.31;5195045;28;20116;-47
2023/06/26 09:59:44;;;;;;;7.15;2.45;;;27.30;81.80;;;28.07;65.08;101035.44;5197413;28;20049;-48
2023/06/26 10:02:16;;;;;;;;;;;27.20;81.90;;;28.04;63.97;101031.06;5206472;28;20046;-48
2023/06/26 10:04:48;;;;;;;4.20;2.10;;;27.20;80.40;;;28.05;64.54;101032.81;5197673;28;19925;-48
2023/06/26 10:07:22;;;;;;;4.78;1.88;;;27.20;80.80;;;27.75;65.02;101037.38;5187675;28;20037;-48
2023/06/26 10:09:58;;;;;;;3.38;2.10;;;27.00;80.80;;;27.54;66.65;101036.25;5217061;28;20518;-48
2023/06/26 10:12:31;;;;;;;6.53;2.25;;;26.90;82.10;;;27.41;67.01;101044.72;5204345;28;20034;-48
2023/06/26 10:15:05;;;;;;;5.03;2.17;;;26.70;82.40;;;27.15;66.54;101049.03;5192173;28;20141;-48
2023/06/26 10:17:40;;;;;;;5.68;2.10;;;26.50;81.70;;;27.10;66.07;101037.59;5194872;28;20122;-48
2023/06/26 10:20:14;;;;;;;4.88;1.88;;;26.40;81.60;;;27.38;66.97;101040.31;5214170;28;20053;-48
2023/06/26 10:22:48;;;;;;;5.57;1.90;;;26.50;82.90;;;27.64;65.26;101047.50;5192480;28;20071;-48
2023/06/26 10:25:25;;;;;;;4.70;1.80;;;26.70;81.80;;;27.60;64.43;101051.25;5217033;28;20045;-48
2023/06/26 10:27:59;;;;;;;4.80;1.90;;;26.70;81.40;;;27.45;64.66;101049.03;5197035;28;20416;-48
2023/06/26 10:30:36;;;;;;;5.70;2.08;;;26.70;80.70;;;27.36;64.73;101052.88;5201727;28;20104;-48
2023/06/26 10:33:12;;;;;;;3.00;1.77;;;26.60;80.50;;;27.18;64.87;101064.13;5201660;28;20145;-48
2023/06/26 10:35:46;;;;;;;3.25;1.80;;;26.50;80.50;;;27.11;65.28;101052.72;5204221;28;20402;-48
2023/06/26 10:38:18;;;;;;;4.82;2.10;;;26.40;80.70;;;27.19;65.44;101058.75;5200882;28;20037;-48
2023/06/26 10:40:52;;;;;;;6.80;2.25;;;26.40;81.10;;;27.25;65.17;101050.50;5200710;28;20041;-48